Time;durP1;ratioP1;P1;durP2;ratioP2;P2;SDS_P1;SDS_P2;PMS_P1;PMS_P2;Temp;Humidity;BMP_temperature;BMP_pressure;BME280_temperature;BME280_humidity;BME280_pressure;Samples;Min_cycle;Max_cycle;Signal;HPM_P1;HPM_P2
2021/06/21 00:00:56;;;;;;;4.23;1.50;;;26.50;56.20;;;;;;5026327;28;20448;-48
2021/06/21 00:03:22;;;;;;;4.30;1.60;;;26.60;56.40;;;;;;5029601;28;20459;-48
2021/06/21 00:05:48;;;;;;;7.97;2.00;;;26.80;56.20;;;;;;5027420;28;20193;-48
2021/06/21 00:08:14;;;;;;;3.93;1.70;;;27.00;55.70;;;;;;5024019;28;20789;-50
2021/06/21 00:10:40;;;;;;;7.20;1.60;;;27.00;54.80;;;;;;5026400;28;20560;-47
2021/06/21 00:13:06;;;;;;;3.23;1.53;;;27.00;55.30;;;;;;5030177;28;20571;-48
2021/06/21 00:15:31;;;;;;;5.13;1.57;;;27.00;55.60;;;;;;5026950;28;21234;-49
2021/06/21 00:17:57;;;;;;;3.17;1.27;;;27.20;55.30;;;;;;5022903;28;20289;-48
2021/06/21 00:20:24;;;;;;;6.83;1.77;;;27.30;54.90;;;;;;5024967;28;20911;-49
2021/06/21 00:22:52;;;;;;;5.63;1.80;;;27.40;54.50;;;;;;5024978;28;20216;-47
2021/06/21 00:25:18;;;;;;;6.30;2.70;;;27.40;54.20;;;;;;5021669;28;20448;-50
2021/06/21 00:27:44;;;;;;;3.63;1.60;;;27.40;53.40;;;;;;5025353;28;20444;-48
2021/06/21 00:30:13;;;;;;;6.27;2.00;;;26.60;54.40;;;;;;5029429;28;20534;-47
2021/06/21 00:32:40;;;;;;;4.70;1.63;;;26.20;56.50;;;;;;5023571;28;20542;-48
2021/06/21 00:35:07;;;;;;;2.90;1.60;;;26.30;56.70;;;;;;5027332;28;20570;-49
2021/06/21 00:37:33;;;;;;;5.87;1.93;;;26.50;56.20;;;;;;5019673;28;20543;-48
2021/06/21 00:39:59;;;;;;;4.30;1.50;;;26.70;55.40;;;;;;5028196;28;20511;-47
2021/06/21 00:42:25;;;;;;;5.33;1.80;;;26.70;55.80;;;;;;5021899;28;20635;-48
2021/06/21 00:44:50;;;;;;;3.50;1.50;;;26.90;55.60;;;;;;5027949;28;20450;-52
2021/06/21 00:47:18;;;;;;;6.93;2.17;;;27.00;55.20;;;;;;5025302;28;20204;-52
2021/06/21 00:49:44;;;;;;;4.20;1.57;;;27.10;54.80;;;;;;5028537;28;20193;-52
2021/06/21 00:52:15;;;;;;;3.93;1.60;;;27.10;55.00;;;;;;5024361;28;20523;-51
2021/06/21 00:54:40;;;;;;;3.07;1.30;;;27.10;54.60;;;;;;5024583;28;20549;-50
2021/06/21 00:57:06;;;;;;;3.43;1.37;;;27.20;54.40;;;;;;5025551;28;20916;-52
2021/06/21 00:59:32;;;;;;;5.90;1.97;;;27.20;54.40;;;;;;5024088;28;20287;-51
2021/06/21 01:01:58;;;;;;;4.37;1.60;;;27.20;54.40;;;;;;5023613;28;20530;-48
2021/06/21 01:04:24;;;;;;;5.60;1.60;;;27.10;54.40;;;;;;5027584;28;20193;-47
2021/06/21 01:06:49;;;;;;;3.70;1.63;;;27.10;54.50;;;;;;5027025;28;20200;-51
2021/06/21 01:09:15;;;;;;;8.47;2.17;;;27.10;54.70;;;;;;5025701;28;20193;-52
2021/06/21 01:12:02;;;;;;;5.37;1.50;;;27.20;54.60;;;;;;5026412;28;20225;-50
2021/06/21 01:14:48;;;;;;;4.03;1.47;;;27.30;53.80;;;;;;5025384;28;20239;-48
2021/06/21 01:17:19;;;;;;;4.37;1.90;;;27.30;54.00;;;;;;5025695;28;20451;-51
2021/06/21 01:20:13;;;;;;;4.77;1.63;;;27.30;54.00;;;;;;5024804;28;20647;-49
2021/06/21 01:23:03;;;;;;;5.43;1.20;;;27.30;53.90;;;;;;5027799;28;20446;-52
2021/06/21 01:25:40;;;;;;;4.80;1.50;;;27.00;54.30;;;;;;5020971;28;20444;-48
2021/06/21 01:28:35;;;;;;;3.20;2.00;;;26.60;55.10;;;;;;5018317;28;20460;-48
2021/06/21 01:31:19;;;;;;;3.43;1.47;;;26.10;56.00;;;;;;5017877;28;20827;-50
2021/06/21 01:33:47;;;;;;;6.10;1.83;;;25.60;56.70;;;;;;5030841;28;20483;-51
2021/06/21 01:36:17;;;;;;;5.33;1.50;;;25.30;57.60;;;;;;5032240;28;20462;-52
2021/06/21 01:38:48;;;;;;;3.83;1.50;;;25.40;58.40;;;;;;5030238;28;20447;-52
2021/06/21 01:41:26;;;;;;;8.37;3.50;;;25.80;57.80;;;;;;5029568;28;20446;-48
2021/06/21 01:43:54;;;;;;;5.20;1.77;;;26.20;56.80;;;;;;5025844;28;20513;-50
2021/06/21 01:46:24;;;;;;;5.80;2.47;;;26.40;56.70;;;;;;5025323;28;20471;-47
2021/06/21 01:49:17;;;;;;;6.33;1.70;;;26.40;54.70;;;;;;5027937;28;20441;-51
2021/06/21 01:51:44;;;;;;;5.50;1.80;;;26.10;55.70;;;;;;5027903;28;20475;-52
2021/06/21 01:54:11;;;;;;;8.20;1.80;;;26.00;55.20;;;;;;5022449;28;20499;-48
2021/06/21 01:56:42;;;;;;;3.00;1.13;;;26.00;55.10;;;;;;5032215;28;20447;-51
2021/06/21 01:59:08;;;;;;;4.83;1.57;;;26.20;55.60;;;;;;5025192;28;21103;-50
2021/06/21 02:01:34;;;;;;;9.07;2.47;;;26.40;55.40;;;;;;5027049;28;20440;-50
2021/06/21 02:04:03;;;;;;;3.27;1.53;;;26.50;55.00;;;;;;5028155;28;20235;-50
2021/06/21 02:06:31;;;;;;;3.23;1.40;;;26.50;54.60;;;;;;5023840;28;20925;-47
2021/06/21 02:08:58;;;;;;;3.67;2.07;;;26.60;54.70;;;;;;5030930;28;20939;-48
2021/06/21 02:11:27;;;;;;;9.00;2.07;;;26.70;54.40;;;;;;5029935;28;20522;-51
2021/06/21 02:13:55;;;;;;;4.33;1.63;;;26.80;54.10;;;;;;5031456;28;20498;-51
2021/06/21 02:16:23;;;;;;;4.50;1.60;;;26.70;53.50;;;;;;5029165;28;20432;-50
2021/06/21 02:18:50;;;;;;;3.33;1.50;;;26.40;53.80;;;;;;5032196;28;20440;-49
2021/06/21 02:21:18;;;;;;;6.97;1.90;;;26.20;54.90;;;;;;5022236;28;20432;-50
2021/06/21 02:23:45;;;;;;;4.37;1.57;;;26.40;54.80;;;;;;5028488;28;20476;-47
2021/06/21 02:26:11;;;;;;;13.40;2.27;;;26.60;54.50;;;;;;5025754;28;20483;-52
2021/06/21 02:28:37;;;;;;;5.00;1.80;;;26.80;54.10;;;;;;5030508;28;20440;-52
2021/06/21 02:31:07;;;;;;;6.77;2.00;;;27.00;53.70;;;;;;5026405;28;20439;-50
2021/06/21 02:33:33;;;;;;;5.10;1.83;;;27.10;53.50;;;;;;5024378;28;20200;-51
2021/06/21 02:35:58;;;;;;;4.67;1.43;;;27.10;52.30;;;;;;5028124;28;20449;-49
2021/06/21 02:38:24;;;;;;;5.60;1.60;;;27.00;53.10;;;;;;5032120;28;20435;-51
2021/06/21 02:40:50;;;;;;;3.90;1.57;;;27.10;53.10;;;;;;5029505;28;20244;-49
2021/06/21 02:43:16;;;;;;;6.27;1.80;;;26.90;53.10;;;;;;5027984;28;20181;-47
2021/06/21 02:45:42;;;;;;;9.73;2.20;;;26.70;53.00;;;;;;5030263;28;20201;-50
2021/06/21 02:48:09;;;;;;;7.33;2.17;;;26.50;53.80;;;;;;5028238;28;20882;-51
2021/06/21 02:50:37;;;;;;;5.77;1.80;;;26.20;54.30;;;;;;5029966;28;21003;-50
2021/06/21 02:53:38;;;;;;;5.87;1.97;;;26.10;54.60;;;;;;5030288;28;20432;-48
2021/06/21 02:56:12;;;;;;;6.07;1.83;;;26.20;54.80;;;;;;4965669;28;20474;-51
2021/06/21 02:58:48;;;;;;;10.43;2.70;;;26.20;54.00;;;;;;5015665;28;20463;-48
2021/06/21 03:01:15;;;;;;;7.53;1.80;;;26.00;55.20;;;;;;5028159;28;20447;-47
2021/06/21 03:03:46;;;;;;;9.27;1.67;;;26.10;55.10;;;;;;5031133;28;20440;-46
2021/06/21 03:06:14;;;;;;;3.37;1.70;;;26.20;54.40;;;;;;5028452;28;20859;-52
2021/06/21 03:08:40;;;;;;;3.77;2.10;;;26.30;54.20;;;;;;5019930;28;20472;-52
2021/06/21 03:11:07;;;;;;;7.43;1.93;;;26.50;54.50;;;;;;5027305;28;20773;-52
2021/06/21 03:13:34;;;;;;;6.07;1.83;;;26.60;54.00;;;;;;5030886;28;20558;-51
2021/06/21 03:16:01;;;;;;;5.07;1.70;;;26.70;53.70;;;;;;5027988;28;20444;-52
2021/06/21 03:18:27;;;;;;;4.97;2.30;;;26.90;53.50;;;;;;5025315;28;20451;-49
2021/06/21 03:20:56;;;;;;;4.57;1.60;;;26.90;53.30;;;;;;5023879;28;20439;-51
2021/06/21 03:23:30;;;;;;;6.73;2.23;;;27.00;52.80;;;;;;5026982;28;20265;-51
2021/06/21 03:26:02;;;;;;;5.63;2.00;;;27.10;52.80;;;;;;5024823;28;20563;-52
2021/06/21 03:28:29;;;;;;;2.83;1.60;;;27.00;52.60;;;;;;5029571;28;20444;-48
2021/06/21 03:31:05;;;;;;;5.67;2.30;;;27.00;52.60;;;;;;5025271;28;21037;-47
2021/06/21 03:33:31;;;;;;;5.63;2.50;;;27.10;52.60;;;;;;5027528;28;20451;-50
2021/06/21 03:35:57;;;;;;;4.73;2.17;;;27.10;52.40;;;;;;5030722;28;20452;-50
2021/06/21 03:38:28;;;;;;;8.90;2.03;;;27.00;51.50;;;;;;5021857;28;20436;-51
2021/06/21 03:40:59;;;;;;;7.40;2.83;;;26.50;52.40;;;;;;5023621;28;20490;-50
2021/06/21 03:43:26;;;;;;;7.03;2.60;;;25.70;54.50;;;;;;5028385;28;20436;-47
2021/06/21 03:45:54;;;;;;;6.93;2.30;;;25.70;55.10;;;;;;5028845;28;20910;-48
2021/06/21 03:48:20;;;;;;;4.07;2.30;;;25.70;54.60;;;;;;5024397;28;20466;-50
2021/06/21 03:50:46;;;;;;;3.47;1.83;;;25.70;54.60;;;;;;5023012;28;20450;-47
2021/06/21 03:53:13;;;;;;;8.37;2.50;;;25.80;54.60;;;;;;5028762;28;20448;-47
2021/06/21 03:55:39;;;;;;;7.07;1.87;;;25.70;54.30;;;;;;5025104;28;20351;-50
2021/06/21 03:58:05;;;;;;;5.37;2.43;;;25.50;54.90;;;;;;5032047;28;20507;-48
2021/06/21 04:00:32;;;;;;;5.63;1.67;;;25.50;55.50;;;;;;5022813;28;20186;-47
2021/06/21 04:02:58;;;;;;;6.17;2.13;;;25.30;54.50;;;;;;5028893;28;20444;-46
2021/06/21 04:05:25;;;;;;;10.00;2.17;;;25.30;55.00;;;;;;5027311;28;20843;-46
2021/06/21 04:07:51;;;;;;;6.30;2.30;;;25.00;54.90;;;;;;5025887;28;20522;-51
2021/06/21 04:10:19;;;;;;;2.77;1.47;;;25.10;55.50;;;;;;5018459;28;20448;-50
2021/06/21 04:12:47;;;;;;;8.07;2.10;;;25.20;55.20;;;;;;5022046;28;20824;-47
2021/06/21 04:15:15;;;;;;;4.20;2.57;;;25.30;55.30;;;;;;5025914;28;20484;-48
2021/06/21 04:17:42;;;;;;;4.10;1.63;;;25.40;54.70;;;;;;5021215;28;20479;-49
2021/06/21 04:20:13;;;;;;;6.17;1.67;;;25.60;54.90;;;;;;5028278;28;20498;-50
2021/06/21 04:22:39;;;;;;;7.13;2.00;;;25.60;54.70;;;;;;5029971;28;20455;-46
2021/06/21 04:25:07;;;;;;;8.57;2.73;;;25.70;54.80;;;;;;5028352;28;20435;-49
2021/06/21 04:27:33;;;;;;;5.13;2.27;;;25.70;54.60;;;;;;5024720;28;20440;-46
2021/06/21 04:29:59;;;;;;;4.00;1.93;;;25.60;54.60;;;;;;5022941;28;20436;-47
2021/06/21 04:32:24;;;;;;;7.73;1.93;;;25.60;54.90;;;;;;5022926;28;20192;-46
2021/06/21 04:34:50;;;;;;;7.37;2.00;;;25.60;55.10;;;;;;5027948;28;20227;-46
2021/06/21 04:37:15;;;;;;;3.10;1.90;;;25.70;55.00;;;;;;5028864;28;20217;-46
2021/06/21 04:39:41;;;;;;;9.83;2.20;;;25.50;55.20;;;;;;5026828;28;20610;-47
2021/06/21 04:42:07;;;;;;;5.30;2.00;;;25.10;54.90;;;;;;5026241;28;20201;-49
2021/06/21 04:44:32;;;;;;;6.23;2.43;;;25.00;56.30;;;;;;5024882;28;20268;-46
2021/06/21 04:46:58;;;;;;;8.90;2.50;;;24.70;56.40;;;;;;5024203;28;20219;-48
2021/06/21 04:49:24;;;;;;;9.70;1.83;;;24.50;56.80;;;;;;5021746;28;20200;-46
2021/06/21 04:51:50;;;;;;;9.30;2.30;;;24.50;57.10;;;;;;5024252;28;20193;-47
2021/06/21 04:54:16;;;;;;;6.10;2.63;;;24.50;57.20;;;;;;5027354;28;20228;-48
2021/06/21 04:56:42;;;;;;;6.03;2.40;;;24.50;57.20;;;;;;5026239;28;20542;-47
2021/06/21 04:59:08;;;;;;;9.70;2.10;;;24.70;57.20;;;;;;5020534;28;20527;-46
2021/06/21 05:01:34;;;;;;;4.47;1.90;;;24.80;56.80;;;;;;5019433;28;20190;-47
2021/06/21 05:04:04;;;;;;;4.83;2.50;;;25.00;56.70;;;;;;5017147;28;20225;-48
2021/06/21 05:06:32;;;;;;;8.10;2.40;;;25.00;56.30;;;;;;5031019;28;20264;-49
2021/06/21 05:08:58;;;;;;;8.60;1.70;;;25.10;55.90;;;;;;5026783;28;20827;-49
2021/06/21 05:11:23;;;;;;;4.33;1.70;;;25.20;56.20;;;;;;5027903;28;20447;-51
2021/06/21 05:13:49;;;;;;;3.23;1.87;;;25.30;56.00;;;;;;5027931;28;20213;-46
2021/06/21 05:16:16;;;;;;;6.40;2.00;;;25.40;55.90;;;;;;5024428;28;20701;-51
2021/06/21 05:18:42;;;;;;;9.17;1.87;;;25.50;55.30;;;;;;5031101;28;20189;-49
2021/06/21 05:21:07;;;;;;;12.90;2.30;;;25.60;55.20;;;;;;5030541;28;20447;-48
2021/06/21 05:23:33;;;;;;;3.87;1.53;;;25.80;54.90;;;;;;5028713;28;20185;-48
2021/06/21 05:25:59;;;;;;;6.47;1.87;;;25.90;54.90;;;;;;5025335;28;20558;-47
2021/06/21 05:28:24;;;;;;;5.67;2.10;;;26.10;54.60;;;;;;5028313;28;20197;-51
2021/06/21 05:30:50;;;;;;;7.70;2.53;;;26.10;54.20;;;;;;5029433;28;20194;-47
2021/06/21 05:33:15;;;;;;;6.10;2.30;;;26.10;53.90;;;;;;5033091;28;20213;-47
2021/06/21 05:35:41;;;;;;;6.20;2.00;;;26.20;54.00;;;;;;5032918;28;20224;-47
2021/06/21 05:38:08;;;;;;;4.47;1.97;;;26.30;54.50;;;;;;5024239;28;20194;-52
2021/06/21 05:40:34;;;;;;;5.83;1.67;;;26.40;54.00;;;;;;5022035;28;20460;-47
2021/06/21 05:42:59;;;;;;;5.83;2.50;;;26.20;53.60;;;;;;5033860;28;20920;-48
2021/06/21 05:45:25;;;;;;;3.70;1.80;;;26.00;53.80;;;;;;5029711;28;20683;-47
2021/06/21 05:47:50;;;;;;;3.60;2.30;;;25.80;54.50;;;;;;5020962;28;20550;-47
2021/06/21 05:50:16;;;;;;;7.03;2.23;;;25.80;54.90;;;;;;5020906;28;20206;-47
2021/06/21 05:52:43;;;;;;;5.67;1.80;;;25.50;55.40;;;;;;5033801;28;20189;-46
2021/06/21 05:55:09;;;;;;;9.87;2.50;;;25.30;55.70;;;;;;5032289;28;20961;-47
2021/06/21 05:57:35;;;;;;;6.77;1.70;;;25.40;55.70;;;;;;5033534;28;20443;-47
2021/06/21 06:00:01;;;;;;;9.57;2.53;;;25.40;55.70;;;;;;5028707;28;20470;-47
2021/06/21 06:02:26;;;;;;;8.67;2.37;;;25.50;55.70;;;;;;5023514;28;22408;-47
2021/06/21 06:04:53;;;;;;;4.93;2.03;;;25.60;55.70;;;;;;5030486;28;20206;-47
2021/06/21 06:07:18;;;;;;;6.50;1.93;;;25.80;55.40;;;;;;5031257;28;20276;-51
2021/06/21 06:09:44;;;;;;;6.23;1.73;;;25.80;54.90;;;;;;5029262;28;20531;-50
2021/06/21 06:12:10;;;;;;;7.27;3.20;;;25.80;55.20;;;;;;5031670;28;20306;-51
2021/06/21 06:14:36;;;;;;;8.33;2.10;;;25.70;55.60;;;;;;5030331;28;20484;-52
2021/06/21 06:17:02;;;;;;;8.37;2.30;;;25.60;55.30;;;;;;5030129;28;20765;-52
2021/06/21 06:19:28;;;;;;;3.23;1.67;;;25.40;55.90;;;;;;5027839;28;20189;-51
2021/06/21 06:21:53;;;;;;;7.17;1.53;;;25.30;55.40;;;;;;5026368;28;20931;-49
2021/06/21 06:24:19;;;;;;;3.90;1.83;;;25.60;55.70;;;;;;5030059;28;20276;-50
2021/06/21 06:26:45;;;;;;;8.43;2.40;;;25.90;55.50;;;;;;5033195;28;20224;-48
2021/06/21 06:29:11;;;;;;;11.27;1.87;;;25.90;54.90;;;;;;5028649;28;20701;-51
2021/06/21 06:31:37;;;;;;;6.43;1.83;;;25.70;54.10;;;;;;5031573;28;20204;-51
2021/06/21 06:34:03;;;;;;;5.87;1.73;;;25.90;54.40;;;;;;5028923;28;20839;-48
2021/06/21 06:36:28;;;;;;;4.63;1.90;;;26.00;55.00;;;;;;5031709;28;20716;-50
2021/06/21 06:38:54;;;;;;;5.30;2.00;;;26.10;54.80;;;;;;5026682;28;20193;-50
2021/06/21 06:41:20;;;;;;;3.90;2.17;;;26.40;55.30;;;;;;5031481;28;20202;-51
2021/06/21 06:43:46;;;;;;;5.57;1.90;;;26.60;54.30;;;;;;5032502;28;20221;-48
2021/06/21 06:46:12;;;;;;;10.77;1.50;;;26.70;53.50;;;;;;5031222;28;20861;-52
2021/06/21 06:48:37;;;;;;;6.03;2.20;;;26.80;52.80;;;;;;5028156;28;20220;-51
2021/06/21 06:51:03;;;;;;;8.20;2.20;;;26.90;52.80;;;;;;5029996;28;20197;-49
2021/06/21 06:53:40;;;;;;;5.27;1.80;;;27.00;52.90;;;;;;5027904;28;20181;-50
2021/06/21 06:58:50;;;;;;;7.03;1.90;;;27.10;52.30;;;;;;5026034;28;20439;-49
2021/06/21 07:01:15;;;;;;;6.70;2.20;;;26.90;53.00;;;;;;5021003;28;20444;-48
2021/06/21 07:03:41;;;;;;;8.10;2.10;;;27.10;53.20;;;;;;5029760;28;20185;-48
2021/06/21 07:06:07;;;;;;;5.30;2.00;;;27.20;52.60;;;;;;5028131;28;20221;-52
2021/06/21 07:08:33;;;;;;;5.90;2.33;;;27.30;52.70;;;;;;5031541;28;20197;-51
2021/06/21 07:10:59;;;;;;;9.53;2.63;;;27.40;52.40;;;;;;5028939;28;20235;-47
2021/06/21 07:13:25;;;;;;;5.87;2.17;;;27.50;52.00;;;;;;5025715;28;22408;-46
2021/06/21 07:15:50;;;;;;;2.87;1.80;;;27.70;52.40;;;;;;5027543;28;20624;-48
2021/06/21 07:18:16;;;;;;;8.93;1.90;;;27.70;52.30;;;;;;5021802;28;20231;-47
2021/06/21 07:20:42;;;;;;;12.93;2.33;;;27.80;53.00;;;;;;5029278;28;20185;-47
2021/06/21 07:23:07;;;;;;;5.43;1.90;;;28.00;51.50;;;;;;5021697;28;20198;-47
2021/06/21 07:25:33;;;;;;;5.53;2.00;;;28.20;50.30;;;;;;5027949;28;20193;-48
2021/06/21 07:27:58;;;;;;;6.93;2.00;;;28.20;49.70;;;;;;5023771;28;20217;-50
2021/06/21 07:30:24;;;;;;;7.07;1.87;;;28.30;50.10;;;;;;5024044;28;20727;-52
2021/06/21 07:32:51;;;;;;;3.90;1.87;;;28.30;49.40;;;;;;5029834;28;20197;-45
2021/06/21 07:35:16;;;;;;;4.97;2.03;;;28.30;50.20;;;;;;5018809;28;20229;-44
2021/06/21 07:37:42;;;;;;;9.17;1.93;;;28.30;48.40;;;;;;5019874;28;20482;-45
2021/06/21 07:40:08;;;;;;;4.70;1.63;;;28.20;47.70;;;;;;5022526;28;20252;-44
2021/06/21 07:42:34;;;;;;;3.23;1.50;;;28.30;48.50;;;;;;5022065;28;20217;-46
2021/06/21 07:45:00;;;;;;;4.67;1.67;;;28.40;47.50;;;;;;5019564;28;20515;-44
2021/06/21 07:47:26;;;;;;;7.00;2.03;;;28.40;47.50;;;;;;5029050;28;20558;-47
2021/06/21 07:49:51;;;;;;;2.73;1.30;;;28.50;47.50;;;;;;5028773;28;20436;-45
2021/06/21 07:52:17;;;;;;;3.37;1.70;;;28.40;47.20;;;;;;5023537;28;20224;-45
2021/06/21 07:54:42;;;;;;;2.10;1.20;;;28.50;48.40;;;;;;5019226;28;20228;-44
2021/06/21 07:57:08;;;;;;;3.00;1.80;;;28.70;48.10;;;;;;5023338;28;20649;-44
2021/06/21 07:59:34;;;;;;;2.63;1.50;;;28.80;46.70;;;;;;5027564;28;20205;-46
2021/06/21 08:01:59;;;;;;;3.47;1.60;;;28.80;46.30;;;;;;5016577;28;20738;-44
2021/06/21 08:04:25;;;;;;;4.77;1.40;;;28.60;46.30;;;;;;5021088;28;20559;-44
2021/06/21 08:06:51;;;;;;;3.63;1.93;;;28.80;46.70;;;;;;5025164;28;21025;-48
2021/06/21 08:09:16;;;;;;;3.83;1.50;;;28.80;46.20;;;;;;5016972;28;20958;-46
2021/06/21 08:11:42;;;;;;;5.10;1.23;;;29.00;47.20;;;;;;5020659;28;20606;-45
2021/06/21 08:14:07;;;;;;;6.63;1.87;;;29.20;46.40;;;;;;5016768;28;20218;-44
2021/06/21 08:16:33;;;;;;;2.10;1.53;;;29.10;45.60;;;;;;5023711;28;20193;-45
2021/06/21 08:18:59;;;;;;;4.77;1.50;;;29.10;45.00;;;;;;5020457;28;20272;-45
2021/06/21 08:21:25;;;;;;;4.73;1.67;;;29.20;44.90;;;;;;5022475;28;20284;-44
2021/06/21 08:23:50;;;;;;;4.33;1.53;;;29.20;45.30;;;;;;5015264;28;20200;-44
2021/06/21 08:26:16;;;;;;;3.40;1.60;;;29.40;44.80;;;;;;5022105;28;20248;-44
2021/06/21 08:28:42;;;;;;;3.27;1.80;;;29.60;44.20;;;;;;5026107;28;20230;-45
2021/06/21 08:31:07;;;;;;;3.13;1.70;;;29.60;45.00;;;;;;5022961;28;20189;-50
2021/06/21 08:33:33;;;;;;;3.03;1.70;;;29.70;43.50;;;;;;5016129;28;20289;-45
2021/06/21 08:35:59;;;;;;;4.80;1.80;;;30.00;43.20;;;;;;5019285;28;20213;-44
2021/06/21 08:38:24;;;;;;;3.37;1.70;;;30.00;43.80;;;;;;5029244;28;20676;-45
2021/06/21 08:40:50;;;;;;;3.20;1.73;;;30.00;44.10;;;;;;5027467;28;20244;-49
2021/06/21 08:43:16;;;;;;;4.40;2.30;;;30.10;43.50;;;;;;5028035;28;20201;-48
2021/06/21 08:45:44;;;;;;;1.93;1.30;;;30.40;43.00;;;;;;5033214;28;20683;-49
2021/06/21 08:48:10;;;;;;;5.17;2.40;;;30.20;43.50;;;;;;5025796;28;20479;-49
2021/06/21 08:50:38;;;;;;;3.37;1.73;;;30.40;43.70;;;;;;5022208;28;20468;-48
2021/06/21 08:53:04;;;;;;;4.60;2.03;;;30.60;42.20;;;;;;5022551;28;20197;-49
2021/06/21 08:55:30;;;;;;;3.27;1.70;;;30.60;41.30;;;;;;5027705;28;20483;-46
2021/06/21 08:57:55;;;;;;;4.50;1.77;;;30.80;41.50;;;;;;5036771;28;20284;-48
2021/06/21 09:00:23;;;;;;;3.60;1.73;;;30.80;41.50;;;;;;5027034;28;20185;-48
2021/06/21 09:02:50;;;;;;;3.73;1.90;;;30.90;41.60;;;;;;5028835;28;20224;-50
2021/06/21 09:05:16;;;;;;;2.37;1.43;;;31.10;42.00;;;;;;5033118;28;20436;-49
2021/06/21 09:07:42;;;;;;;2.83;1.50;;;31.20;41.80;;;;;;5033100;28;20470;-47
2021/06/21 09:10:25;;;;;;;2.63;1.73;;;31.20;42.00;;;;;;5034926;28;20436;-51
2021/06/21 09:13:09;;;;;;;2.57;1.60;;;31.30;39.90;;;;;;5031748;28;20483;-52
2021/06/21 09:15:38;;;;;;;3.20;2.00;;;31.50;40.10;;;;;;5030551;28;20487;-53
2021/06/21 09:18:30;;;;;;;3.20;1.83;;;31.30;40.30;;;;;;5030236;28;20440;-54
2021/06/21 09:21:22;;;;;;;3.93;1.97;;;31.20;41.10;;;;;;5031182;28;20494;-53
2021/06/21 09:23:50;;;;;;;2.37;1.40;;;31.50;41.40;;;;;;5029702;28;20464;-54
2021/06/21 09:26:19;;;;;;;4.20;2.07;;;31.60;39.90;;;;;;5028977;28;20510;-52
2021/06/21 09:28:45;;;;;;;7.07;2.40;;;31.70;40.20;;;;;;5032454;28;21332;-53
2021/06/21 09:31:11;;;;;;;2.87;1.63;;;31.70;38.30;;;;;;5029707;28;20466;-52
2021/06/21 09:33:37;;;;;;;1.80;1.50;;;31.60;38.70;;;;;;5034151;28;20196;-53
2021/06/21 09:36:04;;;;;;;2.83;1.83;;;31.80;39.40;;;;;;5035102;28;20198;-53
2021/06/21 09:38:29;;;;;;;3.40;1.47;;;31.90;39.40;;;;;;5034749;28;20225;-50
2021/06/21 09:40:57;;;;;;;5.33;2.70;;;32.10;39.20;;;;;;5036313;28;20859;-51
2021/06/21 09:43:34;;;;;;;5.13;1.40;;;32.30;39.20;;;;;;5035417;28;20228;-47
2021/06/21 09:46:15;;;;;;;5.30;2.20;;;32.60;38.90;;;;;;5023364;28;20812;-49
2021/06/21 09:48:48;;;;;;;4.30;1.90;;;32.70;38.10;;;;;;5028905;28;20440;-48
2021/06/21 09:51:18;;;;;;;2.30;1.87;;;32.70;35.70;;;;;;5034516;28;20940;-49
2021/06/21 09:54:02;;;;;;;3.90;1.90;;;32.80;37.30;;;;;;5031571;28;20431;-49
2021/06/21 09:56:39;;;;;;;5.20;1.57;;;32.70;36.20;;;;;;5023603;28;20450;-51
2021/06/21 09:59:17;;;;;;;2.00;1.20;;;32.50;36.50;;;;;;5035847;28;20446;-50
2021/06/21 10:01:43;;;;;;;3.47;1.87;;;32.30;36.90;;;;;;5031511;28;20443;-51
2021/06/21 10:04:24;;;;;;;3.30;1.57;;;32.40;36.80;;;;;;5027183;28;20447;-50
2021/06/21 10:06:50;;;;;;;3.60;1.30;;;32.30;35.90;;;;;;5024247;28;20519;-50
2021/06/21 10:09:16;;;;;;;3.63;1.60;;;32.40;36.50;;;;;;5025077;28;20599;-49
2021/06/21 10:11:43;;;;;;;2.80;1.70;;;32.50;36.40;;;;;;5028378;28;20249;-47
2021/06/21 10:14:11;;;;;;;2.40;1.70;;;32.80;35.10;;;;;;5030969;28;20271;-50
2021/06/21 10:16:38;;;;;;;2.13;1.57;;;32.90;35.90;;;;;;5026612;28;20849;-51
2021/06/21 10:19:05;;;;;;;2.33;1.27;;;32.90;35.70;;;;;;5027446;28;20444;-52
2021/06/21 10:21:33;;;;;;;2.43;1.50;;;32.90;35.80;;;;;;5031072;28;20432;-51
2021/06/21 10:23:59;;;;;;;3.00;1.70;;;33.10;36.50;;;;;;5028500;28;20432;-49
2021/06/21 10:26:25;;;;;;;4.53;1.87;;;33.10;36.00;;;;;;5026792;28;20432;-52
2021/06/21 10:28:52;;;;;;;2.83;1.53;;;33.40;35.20;;;;;;5030226;28;20436;-49
2021/06/21 10:31:27;;;;;;;3.33;1.60;;;33.40;35.30;;;;;;5031087;28;20435;-49
2021/06/21 10:33:57;;;;;;;4.90;1.60;;;33.60;35.20;;;;;;5031244;28;20438;-51
2021/06/21 10:36:42;;;;;;;2.40;1.77;;;34.00;35.20;;;;;;5030808;28;20769;-49
2021/06/21 10:39:08;;;;;;;9.40;2.00;;;34.20;33.90;;;;;;5021167;28;20447;-51
2021/06/21 10:41:34;;;;;;;5.00;2.00;;;34.30;34.70;;;;;;5021517;28;20916;-48
2021/06/21 10:43:59;;;;;;;5.20;1.67;;;34.50;34.80;;;;;;5025016;28;20203;-48
2021/06/21 10:46:31;;;;;;;2.80;2.00;;;34.70;33.90;;;;;;5029900;28;20201;-49
2021/06/21 10:48:59;;;;;;;4.10;1.80;;;34.80;33.40;;;;;;5027606;28;20964;-51
2021/06/21 10:51:39;;;;;;;2.23;1.30;;;35.10;33.00;;;;;;5024957;28;20498;-49
2021/06/21 10:54:07;;;;;;;3.03;1.80;;;35.00;32.70;;;;;;5023911;28;20559;-50
2021/06/21 10:56:59;;;;;;;2.60;1.90;;;35.10;32.90;;;;;;5025613;28;20435;-51
2021/06/21 10:59:27;;;;;;;2.60;1.90;;;35.20;32.00;;;;;;5029089;28;20463;-52
2021/06/21 11:01:57;;;;;;;4.60;1.70;;;35.40;33.20;;;;;;5021405;28;20782;-52
2021/06/21 11:04:35;;;;;;;3.33;1.87;;;35.60;32.00;;;;;;5031683;28;20428;-51
2021/06/21 11:07:22;;;;;;;2.50;1.80;;;35.70;32.20;;;;;;5021815;28;20918;-51
2021/06/21 11:10:02;;;;;;;4.53;2.20;;;35.60;31.20;;;;;;5022527;28;20881;-52
2021/06/21 11:12:30;;;;;;;3.70;1.80;;;35.30;31.20;;;;;;5029374;28;20499;-51
2021/06/21 11:15:17;;;;;;;2.00;1.70;;;34.80;32.30;;;;;;5031542;28;20586;-51
2021/06/21 11:17:46;;;;;;;4.00;2.03;;;34.40;32.80;;;;;;5022852;28;20440;-51
2021/06/21 11:20:48;;;;;;;6.43;1.87;;;34.50;32.90;;;;;;5030590;28;20448;-51
2021/06/21 11:23:42;;;;;;;3.20;2.10;;;34.70;33.50;;;;;;5027193;28;20443;-51
2021/06/21 11:26:08;;;;;;;3.50;1.70;;;34.60;35.30;;;;;;5028444;28;20928;-51
2021/06/21 11:28:45;;;;;;;1.87;1.77;;;34.80;33.70;;;;;;5028268;28;20432;-51
2021/06/21 11:31:20;;;;;;;2.90;1.70;;;34.80;33.70;;;;;;5026279;28;20192;-50
2021/06/21 11:34:00;;;;;;;2.60;1.47;;;35.10;32.80;;;;;;5031451;28;20448;-51
2021/06/21 11:36:37;;;;;;;5.43;2.17;;;35.30;33.60;;;;;;5030707;28;20555;-50
2021/06/21 11:39:30;;;;;;;3.30;1.90;;;35.70;33.20;;;;;;5031393;28;20462;-52
2021/06/21 11:42:04;;;;;;;2.10;1.43;;;36.00;32.80;;;;;;5029130;28;20436;-52
2021/06/21 11:44:39;;;;;;;4.03;1.77;;;36.30;32.00;;;;;;5026683;28;20774;-50
2021/06/21 11:47:20;;;;;;;3.07;1.63;;;36.60;31.30;;;;;;5024391;28;20493;-48
2021/06/21 11:49:51;;;;;;;6.43;1.83;;;36.80;29.50;;;;;;5017252;28;20484;-48
2021/06/21 11:52:23;;;;;;;5.30;2.00;;;36.80;29.80;;;;;;5024184;28;20440;-49
2021/06/21 11:54:50;;;;;;;2.00;1.80;;;36.60;30.20;;;;;;5026582;28;20491;-51
2021/06/21 11:57:18;;;;;;;2.00;1.63;;;36.60;30.30;;;;;;5024056;28;20436;-52
2021/06/21 11:59:49;;;;;;;4.10;2.17;;;36.80;30.00;;;;;;5018474;28;20472;-52
2021/06/21 12:02:17;;;;;;;2.20;1.80;;;36.80;29.60;;;;;;5016579;28;20440;-53
2021/06/21 12:04:44;;;;;;;3.97;1.77;;;36.80;29.70;;;;;;5026512;28;20439;-52
2021/06/21 12:07:26;;;;;;;1.83;1.43;;;36.80;29.20;;;;;;5023813;28;20459;-53
2021/06/21 12:09:53;;;;;;;1.83;1.50;;;36.80;29.50;;;;;;5019594;28;20449;-52
2021/06/21 12:12:33;;;;;;;2.43;1.57;;;36.80;30.00;;;;;;5029181;28;20476;-53
2021/06/21 12:14:59;;;;;;;4.20;1.83;;;36.30;31.90;;;;;;5016950;28;21117;-50
2021/06/21 12:17:27;;;;;;;4.60;2.00;;;36.30;31.20;;;;;;5023834;28;20436;-50
2021/06/21 12:20:15;;;;;;;2.00;1.63;;;36.40;30.60;;;;;;5026101;28;20448;-53
2021/06/21 12:22:53;;;;;;;2.93;1.97;;;36.40;30.90;;;;;;5020480;28;20460;-53
2021/06/21 12:25:23;;;;;;;3.67;2.07;;;36.40;30.50;;;;;;5027420;28;20843;-54
2021/06/21 12:27:49;;;;;;;1.80;1.70;;;36.50;30.70;;;;;;5024766;28;20804;-52
2021/06/21 12:30:30;;;;;;;2.70;1.57;;;36.40;30.20;;;;;;5028061;28;20432;-51
2021/06/21 12:32:56;;;;;;;2.90;2.00;;;36.40;30.10;;;;;;5020029;28;20462;-53
2021/06/21 12:35:21;;;;;;;2.93;1.70;;;36.40;31.00;;;;;;5025151;28;20484;-52
2021/06/21 12:37:47;;;;;;;4.60;1.70;;;36.30;33.00;;;;;;5019133;28;20217;-51
2021/06/21 12:40:22;;;;;;;5.10;2.10;;;36.00;34.50;;;;;;5019722;28;20212;-51
2021/06/21 12:42:49;;;;;;;3.53;1.50;;;36.20;34.60;;;;;;5018440;28;20242;-49
2021/06/21 12:45:18;;;;;;;2.40;1.40;;;36.10;34.10;;;;;;5024730;28;20444;-51
2021/06/21 12:47:55;;;;;;;2.30;2.10;;;36.30;32.90;;;;;;5030480;28;20428;-50
2021/06/21 12:50:22;;;;;;;2.53;1.63;;;36.50;32.50;;;;;;5022639;28;20787;-52
2021/06/21 12:52:50;;;;;;;6.00;1.47;;;36.50;32.50;;;;;;5023447;28;20984;-50
2021/06/21 12:55:26;;;;;;;2.30;2.10;;;36.50;33.20;;;;;;5023093;28;20579;-52
2021/06/21 12:57:51;;;;;;;2.07;1.87;;;36.70;32.70;;;;;;5023397;28;20497;-52